Coatsville, Missouri
Current Conditions -  °F | °C
As of 7:30 PM on Thursday 27 Nov 2014 (Local Time) from KTVK Reporting Station
Clear Clear  
Wind Chill:   Ceiling: Unl
Heat Index: 18°   Visibility: 10mi
Dew Point:   Wind: 6mph
Humidity: 68%   Direction: 110°ESE
Pressure: 30.39"   Gusts: NA
Location:  40.59°N, 92.63°W
Report Text: KTVK 280130Z AUTO 11005KT 10SM CLR M08/M13 A3039 RMK AO2
Loading
Personal Weather Stations






























Interactive Weather Map New forecast layout! Learn more

10-Day Weather Forecast

Advertisements
Track Severe Weather on mobile